sensor_id;sensor_type;location;lat;lon;timestamp;pressure;altitude;pressure_sealevel;temperature;humidity
37860;BME280;23698;52.014;5.190;2022-07-21T00:00:40;101713.56;;;18.74;100.00
37860;BME280;23698;52.014;5.190;2022-07-21T00:03:46;101721.47;;;18.63;100.00
37860;BME280;23698;52.014;5.190;2022-07-21T00:06:52;101718.09;;;18.61;100.00
37860;BME280;23698;52.014;5.190;2022-07-21T00:09:58;101716.41;;;18.60;100.00
37860;BME280;23698;52.014;5.190;2022-07-21T00:13:04;101718.09;;;18.61;100.00
37860;BME280;23698;52.014;5.190;2022-07-21T00:16:10;101726.38;;;18.55;100.00
37860;BME280;23698;52.014;5.190;2022-07-21T00:19:16;101727.75;;;18.45;100.00
37860;BME280;23698;52.014;5.190;2022-07-21T00:22:21;101726.44;;;18.48;100.00
37860;BME280;23698;52.014;5.190;2022-07-21T00:25:27;101715.50;;;18.41;100.00
37860;BME280;23698;52.014;5.190;2022-07-21T00:28:37;101712.53;;;18.43;100.00
37860;BME280;23698;52.014;5.190;2022-07-21T00:31:42;101724.34;;;18.43;100.00
37860;BME280;23698;52.014;5.190;2022-07-21T00:34:48;101715.50;;;18.41;100.00
37860;BME280;23698;52.014;5.190;2022-07-21T00:37:52;101709.63;;;18.38;100.00
37860;BME280;23698;52.014;5.190;2022-07-21T00:40:59;101706.88;;;18.38;100.00
37860;BME280;23698;52.014;5.190;2022-07-21T00:44:04;101715.09;;;18.38;100.00
37860;BME280;23698;52.014;5.190;2022-07-21T00:47:10;101722.50;;;18.37;100.00
37860;BME280;23698;52.014;5.190;2022-07-21T00:50:19;101715.53;;;18.35;100.00
37860;BME280;23698;52.014;5.190;2022-07-21T00:53:24;101704.34;;;18.36;100.00
37860;BME280;23698;52.014;5.190;2022-07-21T00:56:31;101694.22;;;18.37;100.00
37860;BME280;23698;52.014;5.190;2022-07-21T00:59:37;101684.53;;;18.34;100.00
37860;BME280;23698;52.014;5.190;2022-07-21T01:02:43;101690.84;;;18.35;100.00
37860;BME280;23698;52.014;5.190;2022-07-21T01:05:48;101689.34;;;18.39;100.00
37860;BME280;23698;52.014;5.190;2022-07-21T01:08:53;101697.81;;;18.37;100.00
37860;BME280;23698;52.014;5.190;2022-07-21T01:12:06;101691.91;;;18.34;100.00
37860;BME280;23698;52.014;5.190;2022-07-21T01:15:14;101691.09;;;18.33;100.00
37860;BME280;23698;52.014;5.190;2022-07-21T01:18:20;101693.84;;;18.33;100.00
37860;BME280;23698;52.014;5.190;2022-07-21T01:21:31;101704.16;;;18.31;100.00
37860;BME280;23698;52.014;5.190;2022-07-21T01:24:36;101690.69;;;18.29;100.00
37860;BME280;23698;52.014;5.190;2022-07-21T01:27:41;101687.31;;;18.27;100.00
37860;BME280;23698;52.014;5.190;2022-07-21T01:30:46;101677.63;;;18.25;100.00
37860;BME280;23698;52.014;5.190;2022-07-21T01:33:52;101673.66;;;18.21;100.00
37860;BME280;23698;52.014;5.190;2022-07-21T01:36:58;101666.03;;;18.23;100.00
37860;BME280;23698;52.014;5.190;2022-07-21T01:40:06;101664.13;;;18.23;100.00
37860;BME280;23698;52.014;5.190;2022-07-21T01:43:30;101679.75;;;18.23;100.00
37860;BME280;23698;52.014;5.190;2022-07-21T01:46:37;101681.91;;;18.21;100.00
37860;BME280;23698;52.014;5.190;2022-07-21T01:49:43;101675.94;;;18.24;100.00
37860;BME280;23698;52.014;5.190;2022-07-21T01:52:50;101691.63;;;18.17;100.00
37860;BME280;23698;52.014;5.190;2022-07-21T01:55:55;101688.44;;;18.20;100.00
37860;BME280;23698;52.014;5.190;2022-07-21T01:59:00;101684.00;;;18.19;100.00
37860;BME280;23698;52.014;5.190;2022-07-21T02:02:06;101681.03;;;18.20;100.00
37860;BME280;23698;52.014;5.190;2022-07-21T02:05:11;101687.31;;;18.27;100.00
37860;BME280;23698;52.014;5.190;2022-07-21T02:08:17;101680.81;;;18.22;100.00
37860;BME280;23698;52.014;5.190;2022-07-21T02:11:23;101674.97;;;18.11;100.00
37860;BME280;23698;52.014;5.190;2022-07-21T02:14:28;101671.47;;;17.98;100.00
37860;BME280;23698;52.014;5.190;2022-07-21T02:17:34;101678.50;;;17.87;100.00
37860;BME280;23698;52.014;5.190;2022-07-21T02:20:39;101680.44;;;17.86;100.00
37860;BME280;23698;52.014;5.190;2022-07-21T02:23:46;101674.31;;;17.78;100.00
37860;BME280;23698;52.014;5.190;2022-07-21T02:26:51;101669.47;;;17.80;100.00
37860;BME280;23698;52.014;5.190;2022-07-21T02:29:56;101674.09;;;17.79;100.00
37860;BME280;23698;52.014;5.190;2022-07-21T02:33:02;101671.38;;;17.79;100.00
37860;BME280;23698;52.014;5.190;2022-07-21T02:36:08;101668.63;;;17.86;100.00
37860;BME280;23698;52.014;5.190;2022-07-21T02:39:15;101660.16;;;17.87;100.00
37860;BME280;23698;52.014;5.190;2022-07-21T02:42:21;101662.06;;;17.87;100.00
37860;BME280;23698;52.014;5.190;2022-07-21T02:45:26;101664.16;;;17.85;100.00
37860;BME280;23698;52.014;5.190;2022-07-21T02:48:32;101661.41;;;17.85;100.00
37860;BME280;23698;52.014;5.190;2022-07-21T02:51:36;101660.22;;;17.74;100.00
37860;BME280;23698;52.014;5.190;2022-07-21T02:54:43;101664.63;;;17.75;100.00
37860;BME280;23698;52.014;5.190;2022-07-21T02:57:48;101648.81;;;17.77;100.00
37860;BME280;23698;52.014;5.190;2022-07-21T03:00:54;101640.81;;;17.76;100.00
37860;BME280;23698;52.014;5.190;2022-07-21T03:04:00;101648.97;;;17.82;100.00
37860;BME280;23698;52.014;5.190;2022-07-21T03:07:06;101650.44;;;17.85;100.00
37860;BME280;23698;52.014;5.190;2022-07-21T03:10:12;101643.03;;;17.85;100.00
37860;BME280;23698;52.014;5.190;2022-07-21T03:13:17;101650.44;;;17.85;100.00
37860;BME280;23698;52.014;5.190;2022-07-21T03:16:23;101653.19;;;17.85;100.00
37860;BME280;23698;52.014;5.190;2022-07-21T03:19:28;101658.66;;;17.91;100.00
37860;BME280;23698;52.014;5.190;2022-07-21T03:22:33;101666.91;;;17.91;100.00
37860;BME280;23698;52.014;5.190;2022-07-21T03:25:39;101667.25;;;18.02;100.00
37860;BME280;23698;52.014;5.190;2022-07-21T03:28:45;101664.13;;;17.98;100.00
37860;BME280;23698;52.014;5.190;2022-07-21T03:31:50;101667.25;;;18.02;100.00
37860;BME280;23698;52.014;5.190;2022-07-21T03:34:55;101675.09;;;17.98;100.00
37860;BME280;23698;52.014;5.190;2022-07-21T03:38:00;101672.16;;;17.93;100.00
37860;BME280;23698;52.014;5.190;2022-07-21T03:41:07;101663.72;;;17.95;100.00
37860;BME280;23698;52.014;5.190;2022-07-21T03:44:16;101660.97;;;17.95;100.00
37860;BME280;23698;52.014;5.190;2022-07-21T03:47:21;101654.41;;;17.96;100.00
37860;BME280;23698;52.014;5.190;2022-07-21T03:50:28;101644.09;;;17.91;100.00
37860;BME280;23698;52.014;5.190;2022-07-21T03:53:34;101652.09;;;17.92;100.00
37860;BME280;23698;52.014;5.190;2022-07-21T03:56:40;101655.09;;;17.84;100.00
37860;BME280;23698;52.014;5.190;2022-07-21T03:59:45;101671.38;;;17.86;100.00
37860;BME280;23698;52.014;5.190;2022-07-21T04:02:50;101670.91;;;17.82;100.00
37860;BME280;23698;52.014;5.190;2022-07-21T04:05:56;101667.09;;;17.90;100.00
37860;BME280;23698;52.014;5.190;2022-07-21T04:09:02;101663.53;;;17.89;100.00
37860;BME280;23698;52.014;5.190;2022-07-21T04:12:09;101663.94;;;17.93;100.00
37860;BME280;23698;52.014;5.190;2022-07-21T04:15:14;101656.94;;;17.97;100.00
37860;BME280;23698;52.014;5.190;2022-07-21T04:18:20;101668.53;;;17.99;100.00
37860;BME280;23698;52.014;5.190;2022-07-21T04:21:25;101665.78;;;17.99;100.00
37860;BME280;23698;52.014;5.190;2022-07-21T04:24:30;101669.78;;;18.03;100.00
37860;BME280;23698;52.014;5.190;2022-07-21T04:27:36;101671.84;;;18.08;100.00
37860;BME280;23698;52.014;5.190;2022-07-21T04:30:42;101677.09;;;18.09;100.00
37860;BME280;23698;52.014;5.190;2022-07-21T04:33:47;101680.19;;;18.20;100.00
37860;BME280;23698;52.014;5.190;2022-07-21T04:36:52;101671.31;;;18.24;100.00
37860;BME280;23698;52.014;5.190;2022-07-21T04:39:57;101675.91;;;18.30;100.00
37860;BME280;23698;52.014;5.190;2022-07-21T04:43:04;101670.63;;;18.29;100.00
37860;BME280;23698;52.014;5.190;2022-07-21T04:46:11;101673.38;;;18.29;100.00
37860;BME280;23698;52.014;5.190;2022-07-21T04:49:18;101670.19;;;18.32;100.00
37860;BME280;23698;52.014;5.190;2022-07-21T04:52:24;101669.91;;;18.40;100.00
37860;BME280;23698;52.014;5.190;2022-07-21T04:55:29;101669.06;;;18.40;100.00
37860;BME280;23698;52.014;5.190;2022-07-21T04:58:35;101677.69;;;18.43;100.00
37860;BME280;23698;52.014;5.190;2022-07-21T05:01:40;101667.56;;;18.44;100.00
37860;BME280;23698;52.014;5.190;2022-07-21T05:04:48;101668.41;;;18.44;100.00
37860;BME280;23698;52.014;5.190;2022-07-21T05:07:54;101667.78;;;18.42;100.00
37860;BME280;23698;52.014;5.190;2022-07-21T05:10:59;101669.41;;;18.50;100.00
37860;BME280;23698;52.014;5.190;2022-07-21T05:14:05;101666.59;;;18.57;100.00
37860;BME280;23698;52.014;5.190;2022-07-21T05:17:18;101662.41;;;18.54;100.00
37860;BME280;23698;52.014;5.190;2022-07-21T05:20:23;101660.06;;;18.58;100.00
37860;BME280;23698;52.014;5.190;2022-07-21T05:23:28;101659.56;;;18.61;100.00
37860;BME280;23698;52.014;5.190;2022-07-21T05:26:34;101663.19;;;18.61;100.00
37860;BME280;23698;52.014;5.190;2022-07-21T05:29:40;101656.06;;;18.54;100.00
37860;BME280;23698;52.014;5.190;2022-07-21T05:32:45;101651.66;;;18.53;100.00
37860;BME280;23698;52.014;5.190;2022-07-21T05:35:51;101652.47;;;18.53;100.00
37860;BME280;23698;52.014;5.190;2022-07-21T05:38:56;101654.34;;;18.59;100.00
37860;BME280;23698;52.014;5.190;2022-07-21T05:42:01;101657.00;;;18.66;100.00
37860;BME280;23698;52.014;5.190;2022-07-21T05:45:09;101650.22;;;18.68;100.00
37860;BME280;23698;52.014;5.190;2022-07-21T05:48:15;101644.84;;;18.80;100.00
37860;BME280;23698;52.014;5.190;2022-07-21T05:51:20;101640.91;;;18.69;100.00
37860;BME280;23698;52.014;5.190;2022-07-21T05:54:26;101639.97;;;18.82;100.00
37860;BME280;23698;52.014;5.190;2022-07-21T05:57:31;101635.78;;;18.98;100.00
37860;BME280;23698;52.014;5.190;2022-07-21T06:00:38;101641.66;;;19.20;100.00
37860;BME280;23698;52.014;5.190;2022-07-21T06:03:46;101639.53;;;19.22;100.00
37860;BME280;23698;52.014;5.190;2022-07-21T06:06:52;101645.94;;;19.16;100.00
37860;BME280;23698;52.014;5.190;2022-07-21T06:09:57;101639.44;;;19.29;100.00
37860;BME280;23698;52.014;5.190;2022-07-21T06:13:04;101648.06;;;19.33;100.00
37860;BME280;23698;52.014;5.190;2022-07-21T06:16:12;101647.78;;;19.22;100.00
37860;BME280;23698;52.014;5.190;2022-07-21T06:19:17;101645.47;;;19.19;100.00
37860;BME280;23698;52.014;5.190;2022-07-21T06:22:22;101644.41;;;19.20;100.00
37860;BME280;23698;52.014;5.190;2022-07-21T06:25:27;101642.66;;;19.26;100.00
37860;BME280;23698;52.014;5.190;2022-07-21T06:28:33;101643.84;;;19.30;100.00
37860;BME280;23698;52.014;5.190;2022-07-21T06:31:40;101635.31;;;19.38;100.00
37860;BME280;23698;52.014;5.190;2022-07-21T06:34:45;101638.81;;;19.46;100.00
37860;BME280;23698;52.014;5.190;2022-07-21T06:37:51;101638.19;;;19.43;100.00
37860;BME280;23698;52.014;5.190;2022-07-21T06:40:56;101645.69;;;19.36;100.00
37860;BME280;23698;52.014;5.190;2022-07-21T06:44:01;101647.06;;;19.27;100.00
37860;BME280;23698;52.014;5.190;2022-07-21T06:47:10;101648.06;;;19.33;100.00
37860;BME280;23698;52.014;5.190;2022-07-21T06:50:16;101654.09;;;19.23;100.00
37860;BME280;23698;52.014;5.190;2022-07-21T06:53:22;101652.47;;;19.34;100.00
37860;BME280;23698;52.014;5.190;2022-07-21T06:56:28;101648.59;;;19.41;100.00
37860;BME280;23698;52.014;5.190;2022-07-21T06:59:33;101659.16;;;19.56;100.00
37860;BME280;23698;52.014;5.190;2022-07-21T07:02:39;101646.84;;;19.77;100.00
37860;BME280;23698;52.014;5.190;2022-07-21T07:05:46;101651.53;;;19.77;100.00
37860;BME280;23698;52.014;5.190;2022-07-21T07:08:52;101641.56;;;20.06;100.00
37860;BME280;23698;52.014;5.190;2022-07-21T07:11:58;101632.72;;;20.28;100.00
37860;BME280;23698;52.014;5.190;2022-07-21T07:15:28;101634.78;;;20.32;100.00
37860;BME280;23698;52.014;5.190;2022-07-21T07:18:34;101630.78;;;20.05;100.00
37860;BME280;23698;52.014;5.190;2022-07-21T07:21:41;101638.19;;;19.92;100.00
37860;BME280;23698;52.014;5.190;2022-07-21T07:24:46;101643.88;;;19.79;100.00
37860;BME280;23698;52.014;5.190;2022-07-21T07:27:51;101655.16;;;19.89;100.00
37860;BME280;23698;52.014;5.190;2022-07-21T07:30:58;101658.69;;;19.78;100.00
37860;BME280;23698;52.014;5.190;2022-07-21T07:34:04;101661.22;;;19.61;100.00
37860;BME280;23698;52.014;5.190;2022-07-21T07:37:10;101656.41;;;19.56;100.00
37860;BME280;23698;52.014;5.190;2022-07-21T07:40:19;101657.00;;;19.47;100.00
37860;BME280;23698;52.014;5.190;2022-07-21T07:43:27;101668.66;;;19.42;100.00
37860;BME280;23698;52.014;5.190;2022-07-21T07:46:32;101665.47;;;19.45;100.00
37860;BME280;23698;52.014;5.190;2022-07-21T07:49:38;101667.72;;;19.48;100.00
37860;BME280;23698;52.014;5.190;2022-07-21T07:52:45;101673.28;;;19.60;100.00
37860;BME280;23698;52.014;5.190;2022-07-21T07:55:50;101674.91;;;19.49;100.00
37860;BME280;23698;52.014;5.190;2022-07-21T07:58:56;101678.19;;;19.39;100.00
37860;BME280;23698;52.014;5.190;2022-07-21T08:02:02;101689.75;;;19.30;100.00
37860;BME280;23698;52.014;5.190;2022-07-21T08:05:09;101691.13;;;19.20;100.00
37860;BME280;23698;52.014;5.190;2022-07-21T08:08:15;101691.53;;;19.24;100.00
37860;BME280;23698;52.014;5.190;2022-07-21T08:11:21;101690.44;;;19.25;100.00
37860;BME280;23698;52.014;5.190;2022-07-21T08:14:26;101694.94;;;19.19;100.00
37860;BME280;23698;52.014;5.190;2022-07-21T08:17:31;101694.53;;;18.97;100.00
37860;BME280;23698;52.014;5.190;2022-07-21T08:20:38;101700.56;;;19.06;100.00
37860;BME280;23698;52.014;5.190;2022-07-21T08:23:43;101692.09;;;19.08;100.00
37860;BME280;23698;52.014;5.190;2022-07-21T08:26:48;101697.22;;;19.04;100.00
37860;BME280;23698;52.014;5.190;2022-07-21T08:29:53;101691.34;;;19.00;100.00
37860;BME280;23698;52.014;5.190;2022-07-21T08:32:58;101699.03;;;18.92;100.00
37860;BME280;23698;52.014;5.190;2022-07-21T08:36:05;101680.44;;;19.12;100.00
37860;BME280;23698;52.014;5.190;2022-07-21T08:39:11;101689.50;;;19.13;100.00
37860;BME280;23698;52.014;5.190;2022-07-21T08:42:16;101687.69;;;19.07;100.00
37860;BME280;23698;52.014;5.190;2022-07-21T08:45:22;101681.34;;;19.24;100.00
37860;BME280;23698;52.014;5.190;2022-07-21T08:48:28;101697.97;;;19.48;100.00
37860;BME280;23698;52.014;5.190;2022-07-21T08:51:35;101687.16;;;19.35;100.00
37860;BME280;23698;52.014;5.190;2022-07-21T08:54:40;101689.56;;;19.43;100.00
37860;BME280;23698;52.014;5.190;2022-07-21T08:57:46;101691.13;;;19.39;100.00
37860;BME280;23698;52.014;5.190;2022-07-21T09:00:51;101696.47;;;19.34;100.00
37860;BME280;23698;52.014;5.190;2022-07-21T09:04:19;101695.84;;;19.32;100.00
37860;BME280;23698;52.014;5.190;2022-07-21T09:07:26;101695.63;;;19.33;100.00
37860;BME280;23698;52.014;5.190;2022-07-21T09:10:32;101697.69;;;19.19;100.00
37860;BME280;23698;52.014;5.190;2022-07-21T09:13:38;101709.28;;;19.21;100.00
37860;BME280;23698;52.014;5.190;2022-07-21T09:16:44;101703.94;;;19.27;100.00
37860;BME280;23698;52.014;5.190;2022-07-21T09:19:54;101706.47;;;19.28;100.00
37860;BME280;23698;52.014;5.190;2022-07-21T09:23:07;101714.72;;;19.28;100.00
37860;BME280;23698;52.014;5.190;2022-07-21T09:26:12;101713.34;;;19.19;100.00
37860;BME280;23698;52.014;5.190;2022-07-21T09:29:17;101715.03;;;19.01;100.00
37860;BME280;23698;52.014;5.190;2022-07-21T09:32:25;101726.72;;;19.15;100.00
37860;BME280;23698;52.014;5.190;2022-07-21T09:35:31;101723.03;;;19.21;100.00
37860;BME280;23698;52.014;5.190;2022-07-21T09:38:41;101731.59;;;19.32;100.00
37860;BME280;23698;52.014;5.190;2022-07-21T09:41:49;101733.75;;;19.30;100.00
37860;BME280;23698;52.014;5.190;2022-07-21T09:44:56;101729.91;;;19.49;100.00
37860;BME280;23698;52.014;5.190;2022-07-21T09:48:01;101740.22;;;19.54;100.00
37860;BME280;23698;52.014;5.190;2022-07-21T09:51:27;101740.91;;;19.49;100.00
37860;BME280;23698;52.014;5.190;2022-07-21T09:54:34;101741.53;;;19.51;100.00
37860;BME280;23698;52.014;5.190;2022-07-21T09:57:41;101753.44;;;19.27;100.00
37860;BME280;23698;52.014;5.190;2022-07-21T10:00:46;101744.34;;;19.26;100.00
37860;BME280;23698;52.014;5.190;2022-07-21T10:03:55;101743.88;;;19.11;100.00
37860;BME280;23698;52.014;5.190;2022-07-21T10:07:01;101749.03;;;19.00;100.00
37860;BME280;23698;52.014;5.190;2022-07-21T10:10:08;101751.97;;;19.05;100.00
37860;BME280;23698;52.014;5.190;2022-07-21T10:13:14;101754.81;;;19.17;100.00
37860;BME280;23698;52.014;5.190;2022-07-21T10:16:20;101759.81;;;19.02;100.00
37860;BME280;23698;52.014;5.190;2022-07-21T10:19:28;101761.34;;;19.16;100.00
37860;BME280;23698;52.014;5.190;2022-07-21T10:22:44;101767.63;;;19.05;100.00
37860;BME280;23698;52.014;5.190;2022-07-21T10:25:55;101765.50;;;19.26;100.00
37860;BME280;23698;52.014;5.190;2022-07-21T10:29:01;101757.31;;;19.37;100.00
37860;BME280;23698;52.014;5.190;2022-07-21T10:32:09;101759.56;;;19.47;100.00
37860;BME280;23698;52.014;5.190;2022-07-21T10:35:26;101764.53;;;19.38;100.00
37860;BME280;23698;52.014;5.190;2022-07-21T10:38:34;101770.09;;;19.32;100.00
37860;BME280;23698;52.014;5.190;2022-07-21T10:41:42;101772.94;;;19.00;100.00
37860;BME280;23698;52.014;5.190;2022-07-21T10:44:48;101772.59;;;19.33;100.00
37860;BME280;23698;52.014;5.190;2022-07-21T10:47:53;101774.44;;;19.21;100.00
37860;BME280;23698;52.014;5.190;2022-07-21T10:50:58;101771.78;;;19.08;100.00
37860;BME280;23698;52.014;5.190;2022-07-21T10:54:24;101783.28;;;19.23;100.00
37860;BME280;23698;52.014;5.190;2022-07-21T10:57:31;101786.06;;;19.41;100.00
37860;BME280;23698;52.014;5.190;2022-07-21T11:00:36;101782.13;;;19.31;100.00
37860;BME280;23698;52.014;5.190;2022-07-21T11:03:42;101780.69;;;19.28;100.00
37860;BME280;23698;52.014;5.190;2022-07-21T11:06:50;101786.47;;;19.20;100.00
37860;BME280;23698;52.014;5.190;2022-07-21T11:10:13;101794.16;;;19.36;100.00
37860;BME280;23698;52.014;5.190;2022-07-21T11:13:21;101784.44;;;19.15;100.00
37860;BME280;23698;52.014;5.190;2022-07-21T11:20:13;101795.75;;;19.00;100.00
37860;BME280;23698;52.014;5.190;2022-07-21T11:23:19;101790.28;;;18.68;100.00
37860;BME280;23698;52.014;5.190;2022-07-21T11:26:25;101794.22;;;18.79;100.00
37860;BME280;23698;52.014;5.190;2022-07-21T11:29:32;101800.38;;;18.75;100.00
37860;BME280;23698;52.014;5.190;2022-07-21T11:32:37;101796.25;;;18.59;100.00
37860;BME280;23698;52.014;5.190;2022-07-21T11:35:42;101796.09;;;18.54;100.00
37860;BME280;23698;52.014;5.190;2022-07-21T11:38:57;101804.84;;;18.69;100.00
37860;BME280;23698;52.014;5.190;2022-07-21T11:42:04;101798.59;;;18.87;100.00
37860;BME280;23698;52.014;5.190;2022-07-21T11:45:13;101804.75;;;18.89;100.00
37860;BME280;23698;52.014;5.190;2022-07-21T11:48:30;101803.34;;;19.05;100.00
37860;BME280;23698;52.014;5.190;2022-07-21T11:51:35;101801.38;;;19.12;100.00
37860;BME280;23698;52.014;5.190;2022-07-21T11:54:43;101804.66;;;19.21;100.00
37860;BME280;23698;52.014;5.190;2022-07-21T11:57:48;101803.44;;;19.17;100.00
37860;BME280;23698;52.014;5.190;2022-07-21T12:01:06;101796.81;;;19.24;100.00
37860;BME280;23698;52.014;5.190;2022-07-21T12:04:14;101797.28;;;19.40;100.00
37860;BME280;23698;52.014;5.190;2022-07-21T12:07:22;101797.72;;;19.37;100.00
37860;BME280;23698;52.014;5.190;2022-07-21T12:10:29;101795.06;;;19.49;100.00
37860;BME280;23698;52.014;5.190;2022-07-21T12:13:53;101795.03;;;19.30;100.00
37860;BME280;23698;52.014;5.190;2022-07-21T12:17:01;101789.19;;;19.45;100.00
37860;BME280;23698;52.014;5.190;2022-07-21T12:20:08;101796.50;;;19.51;100.00
37860;BME280;23698;52.014;5.190;2022-07-21T12:23:18;101796.28;;;19.53;100.00
37860;BME280;23698;52.014;5.190;2022-07-21T12:26:24;101799.84;;;19.78;100.00
37860;BME280;23698;52.014;5.190;2022-07-21T12:29:29;101798.66;;;19.49;100.00
37860;BME280;23698;52.014;5.190;2022-07-21T12:32:43;101798.94;;;19.22;100.00
37860;BME280;23698;52.014;5.190;2022-07-21T12:35:58;101803.91;;;19.32;100.00
37860;BME280;23698;52.014;5.190;2022-07-21T12:39:15;101803.47;;;19.54;100.00
37860;BME280;23698;52.014;5.190;2022-07-21T12:42:41;101804.84;;;19.44;100.00
37860;BME280;23698;52.014;5.190;2022-07-21T12:45:49;101807.13;;;19.29;100.00
37860;BME280;23698;52.014;5.190;2022-07-21T12:49:04;101797.91;;;19.42;100.00
37860;BME280;23698;52.014;5.190;2022-07-21T12:52:15;101803.25;;;19.55;100.00
37860;BME280;23698;52.014;5.190;2022-07-21T12:55:21;101802.16;;;19.82;100.00
37860;BME280;23698;52.014;5.190;2022-07-21T12:58:26;101802.25;;;19.68;100.00
37860;BME280;23698;52.014;5.190;2022-07-21T13:01:32;101803.69;;;19.34;100.00
37860;BME280;23698;52.014;5.190;2022-07-21T13:04:40;101798.50;;;19.26;100.00
37860;BME280;23698;52.014;5.190;2022-07-21T13:07:45;101805.06;;;19.43;100.00
37860;BME280;23698;52.014;5.190;2022-07-21T13:10:50;101805.06;;;19.43;100.00
37860;BME280;23698;52.014;5.190;2022-07-21T13:13:55;101813.41;;;19.55;100.00
37860;BME280;23698;52.014;5.190;2022-07-21T13:17:03;101804.09;;;20.11;100.00
37860;BME280;23698;52.014;5.190;2022-07-21T13:20:10;101803.84;;;20.13;100.00
37860;BME280;23698;52.014;5.190;2022-07-21T13:23:16;101806.88;;;20.53;100.00
37860;BME280;23698;52.014;5.190;2022-07-21T13:26:21;101804.78;;;20.07;100.00
37860;BME280;23698;52.014;5.190;2022-07-21T13:29:27;101796.50;;;19.76;100.00
37860;BME280;23698;52.014;5.190;2022-07-21T13:32:32;101800.44;;;19.80;100.00
37860;BME280;23698;52.014;5.190;2022-07-21T13:35:39;101803.25;;;19.55;100.00
37860;BME280;23698;52.014;5.190;2022-07-21T13:38:45;101805.47;;;19.65;100.00
37860;BME280;23698;52.014;5.190;2022-07-21T13:41:50;101805.22;;;19.48;100.00
37860;BME280;23698;52.014;5.190;2022-07-21T13:45:15;101802.84;;;19.33;100.00
37860;BME280;23698;52.014;5.190;2022-07-21T13:48:20;101809.41;;;19.32;100.00
37860;BME280;23698;52.014;5.190;2022-07-21T13:51:27;101811.00;;;19.21;100.00
37860;BME280;23698;52.014;5.190;2022-07-21T13:54:32;101811.00;;;19.21;100.00
37860;BME280;23698;52.014;5.190;2022-07-21T13:57:37;101814.56;;;19.22;100.00
37860;BME280;23698;52.014;5.190;2022-07-21T14:00:43;101813.56;;;19.16;100.00
37860;BME280;23698;52.014;5.190;2022-07-21T14:03:53;101811.53;;;19.12;100.00
37860;BME280;23698;52.014;5.190;2022-07-21T14:07:00;101812.00;;;19.27;100.00
37860;BME280;23698;52.014;5.190;2022-07-21T14:10:06;101807.69;;;19.38;100.00
37860;BME280;23698;52.014;5.190;2022-07-21T14:13:11;101814.19;;;19.18;100.00
37860;BME280;23698;52.014;5.190;2022-07-21T14:16:16;101807.13;;;19.29;100.00
37860;BME280;23698;52.014;5.190;2022-07-21T14:19:22;101817.81;;;19.37;100.00
37860;BME280;23698;52.014;5.190;2022-07-21T14:22:28;101823.84;;;19.46;100.00
37860;BME280;23698;52.014;5.190;2022-07-21T14:25:33;101813.72;;;19.47;100.00
37860;BME280;23698;52.014;5.190;2022-07-21T14:28:40;101815.19;;;19.68;100.00
37860;BME280;23698;52.014;5.190;2022-07-21T14:31:45;101824.47;;;20.22;100.00
37860;BME280;23698;52.014;5.190;2022-07-21T14:34:51;101826.25;;;20.16;100.00
37860;BME280;23698;52.014;5.190;2022-07-21T14:37:57;101827.09;;;19.98;100.00
37860;BME280;23698;52.014;5.190;2022-07-21T14:41:02;101814.97;;;19.88;100.00
37860;BME280;23698;52.014;5.190;2022-07-21T14:44:08;101826.03;;;19.62;100.00
37860;BME280;23698;52.014;5.190;2022-07-21T14:47:13;101824.22;;;19.75;100.00
37860;BME280;23698;52.014;5.190;2022-07-21T14:50:19;101829.91;;;19.73;100.00
37860;BME280;23698;52.014;5.190;2022-07-21T14:53:31;101836.66;;;19.77;100.00
37860;BME280;23698;52.014;5.190;2022-07-21T14:56:36;101841.94;;;19.79;100.00
37860;BME280;23698;52.014;5.190;2022-07-21T15:00:04;101850.25;;;19.54;100.00
37860;BME280;23698;52.014;5.190;2022-07-21T15:03:09;101854.66;;;19.55;100.00
37860;BME280;23698;52.014;5.190;2022-07-21T15:06:16;101848.25;;;19.61;100.00
37860;BME280;23698;52.014;5.190;2022-07-21T15:09:23;101860.25;;;19.67;100.00
37860;BME280;23698;52.014;5.190;2022-07-21T15:12:28;101866.66;;;19.60;100.00
37860;BME280;23698;52.014;5.190;2022-07-21T15:15:33;101852.50;;;19.82;100.00
37860;BME280;23698;52.014;5.190;2022-07-21T15:18:41;101867.06;;;20.19;100.00
37860;BME280;23698;52.014;5.190;2022-07-21T15:21:46;101857.97;;;20.37;100.00
37860;BME280;23698;52.014;5.190;2022-07-21T15:24:53;101863.03;;;20.22;100.00
37860;BME280;23698;52.014;5.190;2022-07-21T15:27:58;101863.03;;;20.22;100.00
37860;BME280;23698;52.014;5.190;2022-07-21T15:31:03;101875.59;;;19.99;100.00
37860;BME280;23698;52.014;5.190;2022-07-21T15:34:10;101877.00;;;20.02;100.00
37860;BME280;23698;52.014;5.190;2022-07-21T15:37:15;101878.78;;;19.96;100.00
37860;BME280;23698;52.014;5.190;2022-07-21T15:40:22;101874.59;;;19.94;100.00
37860;BME280;23698;52.014;5.190;2022-07-21T15:43:28;101881.19;;;19.68;100.00
37860;BME280;23698;52.014;5.190;2022-07-21T15:46:34;101890.41;;;19.55;100.00
37860;BME280;23698;52.014;5.190;2022-07-21T15:49:39;101886.47;;;19.26;100.00
37860;BME280;23698;52.014;5.190;2022-07-21T15:52:45;101906.31;;;19.28;100.00
37860;BME280;23698;52.014;5.190;2022-07-21T15:55:51;101903.47;;;19.34;100.00
37860;BME280;23698;52.014;5.190;2022-07-21T15:58:56;101905.69;;;19.26;100.00
37860;BME280;23698;52.014;5.190;2022-07-21T16:02:19;101908.50;;;19.19;100.00
37860;BME280;23698;52.014;5.190;2022-07-21T16:05:26;101912.34;;;19.11;100.00
37860;BME280;23698;52.014;5.190;2022-07-21T16:08:31;101917.97;;;18.98;100.00